Terminal Aerodrome Forecast
Issued by NWS

Home | Current Version | Previous Version | Text Only | Print | Product List | Glossary On
Versions: 1 2 3 4 5 6 7 8 9 10 11 12
000
FTUS44 KTSA 292329
TAFFYV
TAF
KFYV 292329Z 3000/3024 18005KT P6SM VCSH SCT080
     FM300500 18005KT P6SM SCT250
     FM300800 18003KT 4SM BR SCT025
     FM301400 18006KT P6SM SCT040
      TEMPO 3014/3018 BKN025=

USA.gov is the U.S. government's official web portal to all federal, state and local government web resources and services.